Time;durP1;ratioP1;P1;durP2;ratioP2;P2;SDS_P1;SDS_P2;PMS_P1;PMS_P2;Temp;Humidity;BMP_temperature;BMP_pressure;BME280_temperature;BME280_humidity;BME280_pressure;Samples;Min_cycle;Max_cycle;Signal;HPM_P1;HPM_P2
2022/05/15 00:02:00;;;;;;;4.17;2.42;;;;;;;12.74;64.96;99064.91;1718681;83;21017;-64
2022/05/15 00:04:27;;;;;;;4.45;2.67;;;;;;;12.72;64.80;99065.61;1718628;83;21735;-65
2022/05/15 00:06:53;;;;;;;6.55;2.90;;;;;;;12.72;64.81;99065.61;1718517;83;20910;-66
2022/05/15 00:09:20;;;;;;;4.25;2.85;;;;;;;12.71;64.78;99065.28;1718478;83;20907;-64
2022/05/15 00:11:47;;;;;;;5.75;2.30;;;;;;;12.70;64.67;99068.95;1718592;83;20910;-65
2022/05/15 00:14:15;;;;;;;4.60;2.70;;;;;;;12.71;64.59;99067.95;1718786;82;20954;-64
2022/05/15 00:16:41;;;;;;;5.10;2.75;;;;;;;12.71;64.55;99066.62;1718554;83;21157;-64
2022/05/15 00:19:09;;;;;;;5.90;2.90;;;;;;;12.70;64.50;99069.79;1718532;83;20927;-67
2022/05/15 00:21:36;;;;;;;5.08;2.60;;;;;;;12.70;64.46;99058.28;1718683;83;21504;-64
2022/05/15 00:24:05;;;;;;;3.58;2.50;;;;;;;12.70;64.49;99061.78;1718559;83;20910;-64
2022/05/15 00:26:33;;;;;;;5.87;2.72;;;;;;;12.69;64.54;99065.99;1718604;83;21013;-64
2022/05/15 00:29:01;;;;;;;5.15;3.00;;;;;;;12.67;64.64;99068.04;1718658;83;21162;-65
2022/05/15 00:31:28;;;;;;;4.87;3.12;;;;;;;12.68;64.73;99058.48;1718425;83;21162;-64
2022/05/15 00:33:55;;;;;;;5.35;2.60;;;;;;;12.71;64.78;99063.95;1718628;83;20891;-64
2022/05/15 00:36:22;;;;;;;6.45;2.95;;;;;;;12.73;64.85;99064.57;1718529;83;21029;-64
2022/05/15 00:38:48;;;;;;;4.80;2.80;;;;;;;12.76;64.85;99061.52;1718572;83;20902;-64
2022/05/15 00:41:15;;;;;;;2.98;2.42;;;;;;;12.78;64.90;99060.30;1718484;83;21778;-64
2022/05/15 00:43:51;;;;;;;5.40;2.77;;;;;;;12.80;64.94;99054.80;1688675;83;20979;-64
2022/05/15 00:46:22;;;;;;;6.00;2.90;;;;;;;12.85;64.83;99046.48;1687387;85;20932;-64
2022/05/15 00:48:50;;;;;;;7.42;2.92;;;;;;;12.88;64.71;99047.44;1686919;84;21486;-65
2022/05/15 00:51:27;;;;;;;6.03;3.05;;;;;;;12.87;64.73;99047.64;1687196;83;20943;-63
2022/05/15 00:53:58;;;;;;;5.53;3.27;;;;;;;12.88;64.79;99050.61;1687234;84;21976;-66
2022/05/15 00:56:27;;;;;;;6.70;3.40;;;;;;;12.87;64.82;99051.65;1687251;85;20921;-64
2022/05/15 00:58:59;;;;;;;3.27;2.25;;;;;;;12.85;64.75;99047.02;1687137;85;21505;-66
2022/05/15 01:01:25;;;;;;;5.55;2.55;;;;;;;12.84;64.75;99054.20;1686959;85;20960;-66
2022/05/15 01:03:52;;;;;;;3.55;2.58;;;;;;;12.83;64.76;99050.38;1687127;84;21043;-64
2022/05/15 01:06:19;;;;;;;4.03;2.72;;;;;;;12.81;64.80;99046.58;1687001;84;22073;-63
2022/05/15 01:08:45;;;;;;;3.95;2.92;;;;;;;12.81;64.84;99045.24;1686967;84;21543;-63
2022/05/15 01:11:15;;;;;;;5.25;3.20;;;;;;;12.77;64.92;99054.67;1686963;84;21012;-63
2022/05/15 01:13:43;;;;;;;8.35;3.60;;;;;;;12.75;65.02;99053.19;1686988;85;20972;-65
2022/05/15 01:16:09;;;;;;;4.37;3.58;;;;;;;12.75;65.02;99047.84;1686997;85;20905;-64
2022/05/15 01:18:37;;;;;;;7.65;3.72;;;;;;;12.75;65.01;99049.19;1659862;85;21777;-64
2022/05/15 01:21:30;;;;;;;6.30;2.90;;;;;;;12.72;65.17;99046.39;1686937;84;20988;-63
2022/05/15 01:23:57;;;;;;;6.47;3.60;;;;;;;12.72;65.18;99042.92;1687115;84;21105;-64
2022/05/15 01:26:25;;;;;;;3.72;3.37;;;;;;;12.73;65.17;99036.55;1706148;83;21169;-65
2022/05/15 01:28:51;;;;;;;7.87;3.70;;;;;;;12.70;65.23;99042.27;1686979;84;20932;-65
2022/05/15 01:31:18;;;;;;;5.50;3.25;;;;;;;12.69;65.33;99041.97;1686925;85;21251;-68
2022/05/15 01:33:48;;;;;;;7.33;3.85;;;;;;;12.64;65.42;99041.23;1686892;85;21003;-65
2022/05/15 01:36:18;;;;;;;4.33;3.15;;;;;;;12.61;65.51;99037.61;1687087;84;21012;-63
2022/05/15 01:38:44;;;;;;;4.30;3.45;;;;;;;12.60;65.46;99035.12;1686909;84;20967;-63
2022/05/15 01:41:12;;;;;;;7.40;3.42;;;;;;;12.60;65.44;99041.78;1699241;84;20959;-64
2022/05/15 01:43:41;;;;;;;5.35;3.58;;;;;;;12.57;65.53;99033.66;1699845;84;21162;-66
2022/05/15 01:46:08;;;;;;;6.90;3.45;;;;;;;12.56;65.61;99036.53;1699907;84;20900;-65
2022/05/15 01:48:35;;;;;;;5.30;3.17;;;;;;;12.56;65.61;99037.88;1699774;84;20923;-64
2022/05/15 01:51:03;;;;;;;4.85;3.40;;;;;;;12.53;65.74;99031.58;1721187;83;21042;-64
2022/05/15 01:53:30;;;;;;;5.28;3.77;;;;;;;12.51;65.81;99037.62;1699622;84;21599;-65
2022/05/15 01:55:57;;;;;;;6.50;3.67;;;;;;;12.47;65.83;99025.67;1665942;86;21353;-63
2022/05/15 01:58:24;;;;;;;6.03;3.35;;;;;;;12.48;65.90;99027.34;1637503;87;21021;-63
2022/05/15 02:00:50;;;;;;;6.08;4.30;;;;;;;12.44;65.98;99031.39;1665995;86;20966;-63
2022/05/15 02:03:18;;;;;;;4.22;3.17;;;;;;;12.42;66.02;99021.42;1637459;87;20954;-63
2022/05/15 02:05:45;;;;;;;5.25;3.35;;;;;;;12.41;66.05;99029.13;1665932;86;21018;-63
2022/05/15 02:08:12;;;;;;;5.03;3.77;;;;;;;12.38;66.11;99029.81;1637517;87;21278;-65
2022/05/15 02:10:38;;;;;;;6.40;4.45;;;;;;;12.34;66.17;99029.89;1665885;86;20935;-63
2022/05/15 02:13:06;;;;;;;6.90;3.55;;;;;;;12.33;66.16;99032.77;1637487;87;21111;-64
2022/05/15 02:15:32;;;;;;;4.33;3.75;;;;;;;12.33;66.13;99029.56;1666001;86;21665;-64
2022/05/15 02:17:59;;;;;;;7.20;4.28;;;;;;;12.31;66.19;99030.27;1637441;87;21024;-66
2022/05/15 02:20:26;;;;;;;5.40;3.45;;;;;;;12.26;66.32;99030.02;1665872;86;21982;-64
2022/05/15 02:22:53;;;;;;;6.28;3.65;;;;;;;12.27;66.41;99028.19;1635247;87;20956;-66
2022/05/15 02:25:20;;;;;;;5.37;3.45;;;;;;;12.27;66.42;99028.19;1652177;86;21178;-66
2022/05/15 02:27:46;;;;;;;4.45;3.22;;;;;;;12.26;66.44;99028.69;1664377;86;21604;-64
2022/05/15 02:30:13;;;;;;;6.60;4.60;;;;;;;12.25;66.55;99027.02;1664586;86;21106;-64
2022/05/15 02:32:40;;;;;;;9.45;4.53;;;;;;;12.24;66.56;99029.90;1662552;86;21163;-67
2022/05/15 02:35:08;;;;;;;8.63;4.12;;;;;;;12.23;66.48;99029.56;1664001;86;21142;-66
2022/05/15 02:37:36;;;;;;;8.50;4.30;;;;;;;12.21;66.57;99028.44;1652276;86;21006;-65
2022/05/15 02:40:06;;;;;;;8.23;4.40;;;;;;;12.20;66.61;99035.31;1630985;87;20931;-64
2022/05/15 02:42:33;;;;;;;6.47;4.08;;;;;;;12.18;66.69;99034.16;1692174;84;20998;-64
2022/05/15 02:45:00;;;;;;;6.30;3.92;;;;;;;12.18;66.76;99029.32;1692187;84;21787;-63
2022/05/15 02:47:27;;;;;;;5.00;3.90;;;;;;;12.17;66.77;99031.69;1691910;84;20936;-64
2022/05/15 02:52:40;;;;;;;5.78;3.90;;;;;;;12.18;66.91;99042.16;1692492;84;20912;-64
2022/05/15 02:55:07;;;;;;;6.50;4.40;;;;;;;12.22;66.90;99042.10;1692525;84;20928;-65
2022/05/15 02:57:35;;;;;;;6.00;3.80;;;;;;;12.24;66.95;99045.39;1692419;84;21904;-64
2022/05/15 03:00:03;;;;;;;5.92;3.98;;;;;;;12.26;67.04;99043.36;1692313;84;20956;-65
2022/05/15 03:02:30;;;;;;;7.78;4.10;;;;;;;12.31;67.08;99043.61;1692491;84;21026;-64
2022/05/15 03:04:56;;;;;;;8.93;4.03;;;;;;;12.38;67.14;99044.48;1666631;84;20915;-65
2022/05/15 03:07:23;;;;;;;7.78;3.90;;;;;;;12.52;67.13;99045.42;1692097;84;21184;-63
2022/05/15 03:09:50;;;;;;;8.18;4.33;;;;;;;12.67;66.95;99044.02;1692445;84;21176;-64
2022/05/15 03:12:17;;;;;;;8.28;4.33;;;;;;;12.80;66.67;99044.91;1692388;84;21482;-64
2022/05/15 03:14:44;;;;;;;5.90;3.98;;;;;;;12.96;66.40;99043.79;1692532;84;21538;-64
2022/05/15 03:17:11;;;;;;;5.10;3.52;;;;;;;13.14;66.11;99036.12;1692381;84;20948;-64
2022/05/15 03:19:37;;;;;;;8.60;4.12;;;;;;;13.32;65.79;99037.76;1692394;84;21007;-63
2022/05/15 03:22:04;;;;;;;6.58;4.03;;;;;;;13.52;65.22;99042.70;1692485;84;21892;-66
2022/05/15 03:24:30;;;;;;;5.45;3.98;;;;;;;13.73;64.60;99043.59;1692305;84;21008;-66
2022/05/15 03:26:58;;;;;;;8.03;3.72;;;;;;;13.91;64.03;99043.34;1692297;84;20920;-64
2022/05/15 03:29:25;;;;;;;5.12;3.70;;;;;;;14.11;63.45;99045.53;1692525;84;20937;-64
2022/05/15 03:31:52;;;;;;;5.90;3.95;;;;;;;14.38;62.71;99044.27;1692315;84;21438;-63
2022/05/15 03:34:19;;;;;;;6.95;3.70;;;;;;;14.54;61.82;99048.71;1692357;84;21180;-64
2022/05/15 03:36:48;;;;;;;6.30;3.77;;;;;;;14.74;61.23;99052.20;1699321;83;21019;-64
2022/05/15 03:39:15;;;;;;;8.88;4.05;;;;;;;14.98;60.73;99044.55;1692442;84;21063;-63
2022/05/15 03:41:42;;;;;;;5.50;3.35;;;;;;;15.26;59.97;99050.45;1678647;84;21588;-63
2022/05/15 03:44:09;;;;;;;5.55;3.90;;;;;;;15.56;59.04;99051.64;1672455;84;20937;-67
2022/05/15 03:46:36;;;;;;;4.65;3.77;;;;;;;15.87;58.17;99050.36;1673385;85;21331;-64
2022/05/15 03:49:02;;;;;;;5.87;3.85;;;;;;;16.17;56.98;99053.78;1672400;85;21508;-64
2022/05/15 03:51:29;;;;;;;8.65;5.20;;;;;;;16.41;55.95;99048.47;1672420;85;21013;-64
2022/05/15 03:53:55;;;;;;;6.92;4.05;;;;;;;16.63;54.94;99056.47;1672287;85;20954;-64
2022/05/15 03:56:49;;;;;;;7.55;4.28;;;;;;;16.85;54.25;99056.91;1672313;85;21030;-64
2022/05/15 03:58:50;;;;;;;6.03;3.50;;;;;;;17.09;53.93;99043.14;1677164;84;21324;-66
2022/05/15 04:01:17;;;;;;;5.22;4.00;;;;;;;17.41;53.19;99043.84;1677770;85;20960;-64
2022/05/15 04:03:43;;;;;;;5.40;3.50;;;;;;;17.69;52.24;99045.48;1687091;85;21011;-63
2022/05/15 04:06:10;;;;;;;5.12;3.33;;;;;;;17.88;51.12;99054.63;1687095;85;20957;-64
2022/05/15 04:08:37;;;;;;;4.50;3.58;;;;;;;17.96;50.47;99048.14;1685676;85;21466;-64
2022/05/15 04:11:03;;;;;;;5.95;3.45;;;;;;;17.91;50.22;99047.98;1686855;85;21168;-65
2022/05/15 04:13:30;;;;;;;4.80;3.45;;;;;;;17.84;50.28;99048.59;1687011;85;21534;-66
2022/05/15 04:15:57;;;;;;;7.20;3.55;;;;;;;17.85;50.03;99053.77;1686978;85;21005;-64
2022/05/15 04:18:24;;;;;;;5.35;3.47;;;;;;;17.85;49.94;99046.22;1685843;85;20952;-65
2022/05/15 04:20:51;;;;;;;6.08;3.60;;;;;;;17.98;50.10;99050.08;1685158;85;21083;-66
2022/05/15 04:23:18;;;;;;;5.40;3.47;;;;;;;18.30;49.98;99047.97;1672352;85;21995;-65
2022/05/15 04:25:45;;;;;;;5.15;3.65;;;;;;;18.71;49.14;99047.95;1672308;85;21033;-65
2022/05/15 04:28:11;;;;;;;5.35;3.65;;;;;;;19.20;48.26;99049.88;1672157;85;20903;-66
2022/05/15 04:30:39;;;;;;;7.35;4.05;;;;;;;19.73;47.19;99048.63;1673322;85;21461;-64
2022/05/15 04:33:06;;;;;;;6.33;3.47;;;;;;;20.27;45.71;99054.03;1672370;84;20927;-65
2022/05/15 04:35:33;;;;;;;6.65;3.60;;;;;;;20.67;44.39;99056.63;1674917;85;21168;-65
2022/05/15 04:37:59;;;;;;;6.20;3.50;;;;;;;21.00;43.54;99063.06;1686964;85;21058;-68
2022/05/15 04:40:26;;;;;;;6.60;3.55;;;;;;;21.44;42.68;99058.88;1686984;84;21000;-67
2022/05/15 04:42:53;;;;;;;6.78;4.00;;;;;;;21.86;41.78;99058.35;1686960;85;21003;-65
2022/05/15 04:45:19;;;;;;;7.87;4.17;;;;;;;22.23;40.75;99059.31;1687086;85;20965;-65
2022/05/15 04:47:46;;;;;;;6.55;3.45;;;;;;;22.44;39.90;99054.91;1685858;85;21188;-65
2022/05/15 04:50:14;;;;;;;8.18;4.00;;;;;;;22.70;39.46;99043.25;1686232;85;21050;-65
2022/05/15 04:52:41;;;;;;;9.30;4.20;;;;;;;23.04;39.03;99039.70;1672372;84;20871;-64
2022/05/15 04:55:08;;;;;;;6.10;3.85;;;;;;;23.40;38.67;99045.64;1672487;85;20995;-63
2022/05/15 04:57:35;;;;;;;7.28;4.08;;;;;;;23.77;37.73;99044.19;1673234;84;21132;-64
2022/05/15 05:00:06;;;;;;;7.10;4.25;;;;;;;24.17;36.82;99048.97;1672194;85;21105;-65
2022/05/15 05:02:32;;;;;;;7.35;3.40;;;;;;;24.45;36.01;99051.19;1659287;86;21033;-65
2022/05/15 05:04:59;;;;;;;6.05;3.90;;;;;;;24.69;35.58;99048.75;1659240;86;21477;-64
2022/05/15 05:07:28;;;;;;;6.75;4.05;;;;;;;24.92;34.82;99043.61;1664856;85;21011;-66
2022/05/15 05:09:55;;;;;;;6.37;3.45;;;;;;;25.09;34.39;99044.66;1686670;85;21003;-68
2022/05/15 05:12:21;;;;;;;8.63;3.37;;;;;;;25.30;33.97;99044.89;1674979;85;21240;-64
2022/05/15 05:14:49;;;;;;;6.55;3.70;;;;;;;25.51;33.80;99047.86;1672457;85;20919;-65
2022/05/15 05:17:16;;;;;;;5.33;3.22;;;;;;;25.72;33.14;99051.33;1672365;84;21504;-64
2022/05/15 05:19:42;;;;;;;4.55;3.10;;;;;;;25.64;33.21;99049.17;1673159;85;21339;-66
2022/05/15 05:22:09;;;;;;;5.40;3.08;;;;;;;25.76;33.04;99043.67;1672419;84;20907;-66
2022/05/15 05:24:35;;;;;;;8.00;3.67;;;;;;;25.70;32.91;99051.61;1684712;85;21985;-67
2022/05/15 05:27:04;;;;;;;5.40;3.15;;;;;;;25.76;32.75;99057.29;1686967;85;20928;-67
2022/05/15 05:29:31;;;;;;;7.67;3.42;;;;;;;25.86;32.45;99053.73;1685930;85;21050;-67
2022/05/15 05:31:57;;;;;;;7.35;3.40;;;;;;;26.05;32.20;99048.43;1685326;85;20981;-66
2022/05/15 05:34:24;;;;;;;5.47;3.33;;;;;;;26.18;31.77;99053.29;1687062;85;20964;-66
2022/05/15 05:36:51;;;;;;;7.45;3.70;;;;;;;26.49;31.74;99052.00;1680092;85;21179;-65
2022/05/15 05:39:18;;;;;;;4.80;3.08;;;;;;;26.84;31.52;99042.75;1673141;85;21038;-64
2022/05/15 05:41:45;;;;;;;4.47;3.33;;;;;;;27.19;30.99;99035.61;1667417;85;21109;-65
2022/05/15 05:44:11;;;;;;;4.78;3.20;;;;;;;27.17;30.52;99037.80;1664718;86;20967;-65
2022/05/15 05:46:38;;;;;;;6.83;3.58;;;;;;;26.89;30.57;99043.53;1664953;85;21044;-65
2022/05/15 05:49:04;;;;;;;5.37;3.50;;;;;;;26.53;30.77;99046.80;1665675;85;22011;-65
2022/05/15 05:51:31;;;;;;;4.85;3.35;;;;;;;26.25;31.08;99038.82;1665054;85;21049;-68
2022/05/15 05:53:57;;;;;;;4.90;3.40;;;;;;;26.18;31.51;99039.66;1666554;85;20936;-66
2022/05/15 05:56:24;;;;;;;7.12;3.12;;;;;;;26.29;31.66;99047.51;1679039;85;21019;-65
2022/05/15 05:58:51;;;;;;;6.20;3.40;;;;;;;26.58;31.38;99043.48;1674535;85;20903;-65
2022/05/15 06:01:17;;;;;;;5.78;3.15;;;;;;;26.65;31.33;99048.06;1699040;83;22106;-66
2022/05/15 06:06:29;;;;;;;4.53;3.22;;;;;;;27.37;30.39;99049.89;1713092;83;20927;-67
2022/05/15 06:08:56;;;;;;;5.70;3.45;;;;;;;27.44;30.49;99052.29;1713222;83;20951;-67
2022/05/15 06:11:23;;;;;;;6.17;3.42;;;;;;;27.55;30.05;99045.62;1713066;83;20991;-66
2022/05/15 06:13:50;;;;;;;5.67;2.90;;;;;;;27.62;29.72;99049.34;1713194;83;21215;-66
2022/05/15 06:16:18;;;;;;;6.67;2.80;;;;;;;27.77;29.39;99044.52;1712986;83;21043;-65
2022/05/15 06:18:45;;;;;;;5.67;3.30;;;;;;;27.95;29.34;99043.73;1713157;83;21511;-66
2022/05/15 06:21:12;;;;;;;4.60;2.90;;;;;;;28.36;28.81;99045.39;1713026;83;20915;-65
2022/05/15 06:23:39;;;;;;;4.17;2.55;;;;;;;28.82;28.35;99046.05;1713521;83;21389;-67
2022/05/15 06:26:05;;;;;;;4.78;2.30;;;;;;;29.07;28.30;99049.15;1713163;83;21257;-67
2022/05/15 06:28:34;;;;;;;5.47;2.62;;;;;;;29.26;27.12;99043.09;1712906;83;20922;-70
2022/05/15 06:31:02;;;;;;;6.40;2.33;;;;;;;29.18;27.01;99044.30;1713202;83;21057;-67
2022/05/15 06:33:29;;;;;;;10.25;3.05;;;;;;;29.08;26.95;99045.31;1713093;83;20919;-66
2022/05/15 06:35:56;;;;;;;5.67;2.40;;;;;;;28.75;26.52;99045.08;1713122;83;20958;-67
2022/05/15 06:38:22;;;;;;;4.65;2.25;;;;;;;28.89;26.44;99051.97;1713172;83;22180;-68
2022/05/15 06:40:49;;;;;;;5.05;2.25;;;;;;;29.17;26.31;99045.44;1713059;83;20911;-66
2022/05/15 06:43:16;;;;;;;5.00;2.27;;;;;;;29.57;26.07;99047.97;1712910;83;20962;-66
2022/05/15 06:45:44;;;;;;;5.17;2.35;;;;;;;30.13;25.13;99038.88;1713096;83;21473;-65
2022/05/15 06:48:12;;;;;;;4.25;1.95;;;;;;;30.64;24.54;99049.48;1713001;83;20935;-65
2022/05/15 06:50:39;;;;;;;9.28;2.47;;;;;;;31.16;23.85;99042.42;1713120;83;21164;-67
2022/05/15 06:53:14;;;;;;;6.42;2.50;;;;;;;31.25;23.83;99028.18;1713107;83;21027;-65
2022/05/15 06:58:26;;;;;;;9.30;3.60;;;;;;;32.00;22.99;99024.42;1692910;83;20963;-65
2022/05/15 07:00:53;;;;;;;5.58;2.45;;;;;;;32.35;22.38;99025.53;1676079;85;21018;-66
2022/05/15 07:03:19;;;;;;;5.75;2.50;;;;;;;32.67;22.08;99024.22;1674390;85;21249;-68
2022/05/15 07:05:46;;;;;;;4.85;2.20;;;;;;;33.05;21.50;99030.42;1674710;85;20972;-66
2022/05/15 07:08:15;;;;;;;5.15;2.60;;;;;;;33.43;21.14;99029.88;1664089;85;21057;-66
2022/05/15 07:10:43;;;;;;;5.37;2.20;;;;;;;33.87;20.77;99030.73;1664215;85;21603;-65
2022/05/15 07:13:10;;;;;;;5.72;2.62;;;;;;;34.10;20.13;99038.97;1664272;85;20982;-65
2022/05/15 07:15:37;;;;;;;5.67;2.20;;;;;;;34.12;20.25;99040.03;1683106;83;21172;-64
2022/05/15 07:18:07;;;;;;;5.78;2.45;;;;;;;34.17;19.74;99025.22;1700687;83;21115;-66
2022/05/15 07:20:33;;;;;;;4.33;1.92;;;;;;;34.15;19.83;99026.95;1678655;85;21043;-66
2022/05/15 07:23:00;;;;;;;9.33;1.90;;;;;;;34.12;19.97;99024.29;1673924;85;21077;-65
2022/05/15 07:25:27;;;;;;;2.87;1.90;;;;;;;33.85;19.91;99030.27;1675606;85;21048;-64
2022/05/15 07:27:54;;;;;;;4.83;2.05;;;;;;;34.38;19.58;99028.23;1678922;85;21267;-65
2022/05/15 07:30:21;;;;;;;4.37;2.20;;;;;;;34.32;18.82;99031.52;1672232;83;21524;-67
2022/05/15 07:32:48;;;;;;;4.50;1.98;;;;;;;34.29;19.09;99028.04;1712657;83;21014;-64
2022/05/15 07:35:16;;;;;;;5.45;1.67;;;;;;;33.51;19.72;99025.72;1712580;83;21520;-67
2022/05/15 07:37:42;;;;;;;8.53;2.17;;;;;;;33.23;19.98;99032.80;1732230;82;20962;-67
2022/05/15 07:40:11;;;;;;;4.90;1.98;;;;;;;33.33;20.14;99030.25;1686224;83;21155;-68
2022/05/15 07:42:41;;;;;;;4.28;1.75;;;;;;;33.70;19.91;99036.93;1686667;84;21543;-66
2022/05/15 07:45:08;;;;;;;4.72;1.62;;;;;;;33.19;20.12;99036.56;1689719;84;20998;-67
2022/05/15 07:47:35;;;;;;;3.67;1.80;;;;;;;33.17;19.68;99033.30;1702262;83;21066;-67
2022/05/15 07:50:02;;;;;;;3.75;1.77;;;;;;;33.13;19.71;99029.59;1721371;83;21048;-67
2022/05/15 07:52:28;;;;;;;4.47;1.72;;;;;;;33.42;19.40;99024.14;1721459;83;21355;-67
2022/05/15 07:54:55;;;;;;;3.60;1.80;;;;;;;33.08;19.60;99025.64;1713212;83;21017;-63
2022/05/15 07:57:21;;;;;;;4.40;1.82;;;;;;;32.35;19.85;99021.40;1691943;84;20966;-65
2022/05/15 07:59:48;;;;;;;3.60;2.08;;;;;;;31.97;20.21;99030.53;1691930;84;21038;-66
2022/05/15 08:02:14;;;;;;;4.33;2.08;;;;;;;31.54;20.63;99029.05;1692040;84;21602;-68
2022/05/15 08:10:10;;;;;;;4.30;1.72;;;;;;;31.22;21.16;99021.94;1692003;84;20946;-66
2022/05/15 08:12:37;;;;;;;5.12;2.08;;;;;;;30.77;21.62;99039.01;1691969;84;21018;-65
2022/05/15 08:15:05;;;;;;;3.75;1.70;;;;;;;30.60;22.12;99043.57;1692108;84;20959;-64
2022/05/15 08:17:32;;;;;;;5.12;2.00;;;;;;;30.53;21.90;99044.80;1691910;84;21324;-66
2022/05/15 08:25:28;;;;;;;4.45;2.05;;;;;;;30.83;21.32;99032.83;1691840;84;21095;-65
2022/05/15 08:27:55;;;;;;;9.28;2.35;;;;;;;31.20;20.96;99024.75;1698424;83;21059;-66
2022/05/15 08:30:21;;;;;;;3.75;1.37;;;;;;;31.78;20.56;99025.90;1701045;83;21171;-65
2022/05/15 08:32:52;;;;;;;3.52;1.82;;;;;;;32.15;20.15;99037.70;1716873;83;20954;-68
2022/05/15 08:35:19;;;;;;;3.87;1.77;;;;;;;33.25;19.43;99041.55;1714434;82;21006;-64
2022/05/15 08:37:46;;;;;;;3.42;1.60;;;;;;;33.08;19.23;99031.16;1691852;84;21144;-66
2022/05/15 08:40:12;;;;;;;5.97;1.90;;;;;;;32.77;19.38;99038.24;1691759;84;21153;-67
2022/05/15 08:42:56;;;;;;;4.30;1.82;;;;;;;32.38;19.62;99037.02;1685480;84;21353;-67
2022/05/15 08:45:20;;;;;;;4.30;1.75;;;;;;;32.38;19.50;99041.96;1667444;84;21497;-66
2022/05/15 08:47:48;;;;;;;4.95;1.85;;;;;;;32.43;19.54;99044.55;1664210;86;20990;-65
2022/05/15 08:50:18;;;;;;;4.83;1.98;;;;;;;31.75;20.25;99043.84;1672525;85;21039;-66
2022/05/15 08:53:07;;;;;;;3.00;1.70;;;;;;;32.76;19.30;99042.12;1677748;85;20984;-64
2022/05/15 08:55:43;;;;;;;3.25;1.67;;;;;;;33.07;19.18;99040.55;1680910;83;21175;-66
2022/05/15 08:58:24;;;;;;;4.22;1.85;;;;;;;34.17;18.07;99045.92;1712652;83;20864;-64
2022/05/15 09:00:52;;;;;;;3.58;1.82;;;;;;;34.98;17.61;99042.08;1692949;83;21067;-65
2022/05/15 09:03:30;;;;;;;4.12;1.60;;;;;;;33.39;18.27;99053.19;1673650;85;21035;-66
2022/05/15 09:06:37;;;;;;;3.33;1.60;;;;;;;33.85;17.86;99047.39;1666638;85;21026;-66
2022/05/15 09:09:35;;;;;;;3.42;1.40;;;;;;;33.87;17.73;99052.02;1675445;85;21120;-66
2022/05/15 09:12:22;;;;;;;3.85;1.77;;;;;;;33.90;17.09;99048.58;1706634;83;21363;-67
2022/05/15 09:15:18;;;;;;;3.67;2.05;;;;;;;33.58;17.14;99050.06;1706493;83;21073;-65
2022/05/15 09:18:05;;;;;;;3.35;1.70;;;;;;;32.99;17.97;99053.17;1665719;85;21026;-65
2022/05/15 09:20:57;;;;;;;4.80;1.67;;;;;;;34.06;17.21;99054.59;1665263;85;21115;-66
2022/05/15 09:23:39;;;;;;;4.58;1.75;;;;;;;35.34;16.32;99042.99;1664221;86;21292;-66
2022/05/15 09:26:19;;;;;;;2.37;1.30;;;;;;;35.38;15.89;99050.04;1651738;86;21014;-66
2022/05/15 09:28:54;;;;;;;3.98;1.30;;;;;;;35.16;16.05;99047.68;1664232;85;21060;-64
2022/05/15 09:31:33;;;;;;;3.77;1.75;;;;;;;36.49;15.29;99056.83;1665350;85;20978;-65
2022/05/15 09:34:10;;;;;;;2.83;1.50;;;;;;;37.23;14.37;99048.43;1663968;85;21118;-67
2022/05/15 09:36:42;;;;;;;4.62;1.20;;;;;;;37.85;13.70;99051.80;1664333;85;21101;-66
2022/05/15 09:39:31;;;;;;;2.15;1.35;;;;;;;38.57;13.33;99046.11;1665795;85;21077;-66
2022/05/15 09:45:25;;;;;;;2.08;1.00;;;;;;;39.81;12.55;99056.24;1665146;85;21033;-66
2022/05/15 09:48:01;;;;;;;4.17;1.40;;;;;;;40.38;11.80;99043.16;1665055;85;21081;-67
2022/05/15 09:50:45;;;;;;;4.45;1.10;;;;;;;39.89;11.59;99062.11;1664081;86;21283;-67
2022/05/15 09:53:28;;;;;;;1.57;1.15;;;;;;;40.03;11.39;99055.37;1664252;85;20939;-67
2022/05/15 09:56:05;;;;;;;3.55;1.07;;;;;;;40.17;11.39;99064.56;1664149;85;21079;-67
2022/05/15 09:58:45;;;;;;;4.75;1.55;;;;;;;38.43;12.37;99073.62;1665198;85;21075;-66
2022/05/15 10:01:38;;;;;;;3.72;1.22;;;;;;;38.89;11.89;99057.33;1650266;86;21068;-67
2022/05/15 10:04:09;;;;;;;4.83;1.35;;;;;;;38.62;12.07;99063.08;1654210;85;21815;-66
2022/05/15 10:06:43;;;;;;;2.37;1.10;;;;;;;36.98;12.51;99055.26;1676654;85;21069;-66
2022/05/15 10:09:14;;;;;;;2.85;0.90;;;;;;;34.79;14.17;99070.78;1676676;85;21091;-67
2022/05/15 10:11:46;;;;;;;3.22;1.40;;;;;;;33.53;15.15;99072.25;1678762;85;21024;-67
2022/05/15 10:14:23;;;;;;;1.70;0.98;;;;;;;32.60;16.15;99070.72;1678841;85;21355;-66
2022/05/15 10:16:53;;;;;;;1.85;1.07;;;;;;;31.80;17.26;99070.38;1665066;85;21279;-66
2022/05/15 10:19:49;;;;;;;3.30;1.15;;;;;;;30.88;17.61;99076.63;1670275;85;21011;-67
2022/05/15 10:22:54;;;;;;;2.55;1.20;;;;;;;30.00;18.44;99089.06;1651320;86;21161;-65
2022/05/15 10:26:01;;;;;;;3.75;1.05;;;;;;;29.16;19.15;99091.17;1659077;86;21264;-65
2022/05/15 10:28:52;;;;;;;2.80;1.10;;;;;;;28.30;20.21;99104.00;1668398;85;21017;-67
2022/05/15 10:31:32;;;;;;;3.42;2.02;;;;;;;27.70;21.06;99091.88;1681163;85;21264;-66
2022/05/15 10:34:02;;;;;;;8.00;1.40;;;;;;;27.32;21.31;99094.19;1681316;85;20970;-65
2022/05/15 10:37:11;;;;;;;4.17;1.25;;;;;;;26.88;21.70;99085.55;1678367;85;21524;-66
2022/05/15 10:40:03;;;;;;;3.10;1.50;;;;;;;26.49;22.13;99094.27;1664229;86;21060;-66
2022/05/15 10:42:53;;;;;;;3.05;1.60;;;;;;;26.05;22.62;99107.02;1594721;89;21100;-66
2022/05/15 10:45:49;;;;;;;2.85;1.20;;;;;;;25.71;23.39;99106.34;1589324;90;21187;-65
2022/05/15 10:48:42;;;;;;;3.62;1.72;;;;;;;25.62;23.76;99103.94;1651464;85;20953;-65
2022/05/15 10:51:37;;;;;;;4.67;1.82;;;;;;;25.62;23.56;99109.92;1677485;85;21058;-65
2022/05/15 10:57:29;;;;;;;4.28;1.10;;;;;;;25.37;24.13;99105.30;1677536;85;20983;-65
2022/05/15 11:00:22;;;;;;;5.67;1.80;;;;;;;25.44;24.85;99107.22;1677412;85;21286;-66
2022/05/15 11:03:15;;;;;;;2.67;1.50;;;;;;;25.56;24.21;99099.59;1650058;85;21482;-65
2022/05/15 11:06:25;;;;;;;5.72;1.10;;;;;;;25.58;24.00;99107.47;1677363;85;21030;-64
2022/05/15 11:09:06;;;;;;;3.42;1.40;;;;;;;25.44;24.14;99097.69;1696686;84;21004;-65
2022/05/15 11:12:01;;;;;;;5.55;1.42;;;;;;;25.24;24.32;99099.63;1695157;84;21017;-66
2022/05/15 11:14:37;;;;;;;3.33;0.90;;;;;;;25.30;24.62;99093.07;1664772;86;21245;-64
2022/05/15 11:17:39;;;;;;;1.70;1.10;;;;;;;25.31;24.34;99094.17;1632244;87;21060;-66
2022/05/15 11:20:12;;;;;;;1.42;1.00;;;;;;;25.19;24.41;99089.55;1606903;88;21603;-65
2022/05/15 11:22:49;;;;;;;1.87;1.15;;;;;;;25.05;24.82;99097.48;1667877;85;20996;-66
2022/05/15 11:25:24;;;;;;;2.37;0.88;;;;;;;25.05;24.87;99092.57;1680071;84;20968;-65
2022/05/15 11:27:55;;;;;;;3.20;1.40;;;;;;;25.00;24.71;99092.58;1677911;84;21263;-66
2022/05/15 11:30:35;;;;;;;2.10;1.02;;;;;;;24.83;24.61;99093.37;1659695;86;21179;-65
2022/05/15 11:33:08;;;;;;;1.57;0.90;;;;;;;24.59;24.95;99086.25;1618975;88;21016;-66
2022/05/15 11:35:41;;;;;;;4.55;1.35;;;;;;;24.47;25.07;99087.89;1667911;86;21573;-67
2022/05/15 11:38:21;;;;;;;3.35;1.20;;;;;;;24.32;25.32;99084.33;1668208;84;21054;-65
2022/05/15 11:40:52;;;;;;;2.98;1.00;;;;;;;24.17;25.33;99078.86;1658977;86;21246;-65
2022/05/15 11:43:33;;;;;;;4.17;1.10;;;;;;;24.02;25.76;99076.03;1640746;86;21564;-65
2022/05/15 11:46:09;;;;;;;3.35;1.12;;;;;;;23.92;26.18;99079.02;1603008;88;21918;-64
2022/05/15 11:48:52;;;;;;;1.67;0.90;;;;;;;23.84;26.30;99080.05;1657060;85;21051;-66
2022/05/15 11:51:29;;;;;;;3.47;0.80;;;;;;;23.75;26.22;99083.81;1677603;85;21126;-66
2022/05/15 11:54:01;;;;;;;;;;;;;;;23.66;26.03;99083.23;1678425;83;21100;-66
2022/05/15 11:56:48;;;;;;;1.82;1.20;;;;;;;23.61;26.15;99080.50;1712648;83;20172;-66
2022/05/15 11:59:25;;;;;;;1.65;1.42;;;;;;;23.52;26.09;99086.14;1666098;82;21044;-65
2022/05/15 12:02:06;;;;;;;3.95;1.52;;;;;;;23.45;26.27;99080.13;1664513;85;21532;-68
2022/05/15 12:04:41;;;;;;;1.85;1.02;;;;;;;23.45;26.83;99073.34;1676810;85;21586;-66
2022/05/15 12:07:18;;;;;;;2.40;1.22;;;;;;;23.31;26.53;99083.81;1678936;85;21522;-67
2022/05/15 12:09:50;;;;;;;3.55;1.00;;;;;;;23.23;26.91;99077.55;1678937;85;20976;-65
2022/05/15 12:12:31;;;;;;;1.55;0.90;;;;;;;23.28;27.20;99072.94;1679018;85;21051;-66
2022/05/15 12:15:08;;;;;;;3.10;0.90;;;;;;;23.32;26.54;99073.25;1663440;86;21068;-67
2022/05/15 12:17:38;;;;;;;1.52;0.75;;;;;;;23.26;26.46;99066.14;1664190;86;20970;-65
2022/05/15 12:20:14;;;;;;;1.27;0.90;;;;;;;23.27;26.52;99080.83;1664443;86;21153;-65